Time;durP1;ratioP1;P1;durP2;ratioP2;P2;SDS_P1;SDS_P2;PMS_P1;PMS_P2;Temp;Humidity;BMP_temperature;BMP_pressure;BME280_temperature;BME280_humidity;BME280_pressure;Samples;Min_cycle;Max_cycle;Signal;HPM_P1;HPM_P2
2023/03/20 00:00:55;;;;;;;10.30;9.40;;;;;;;-145.53;100.00;64590.91;6300725;28;20440;-62
2023/03/20 00:04:01;;;;;;;11.00;9.90;;;;;;;-145.53;100.00;64590.91;6285180;28;20461;-62
2023/03/20 00:07:14;;;;;;;10.53;9.63;;;;;;;-145.53;100.00;64590.91;6308943;28;20508;-63
2023/03/20 00:10:27;;;;;;;9.60;8.90;;;;;;;-145.53;100.00;64590.91;6305223;28;20427;-59
2023/03/20 00:13:36;;;;;;;9.73;8.93;;;;;;;-145.53;100.00;64590.91;6288353;28;21086;-62
2023/03/20 00:16:48;;;;;;;8.83;8.13;;;;;;;-145.53;100.00;64590.91;6296205;28;20466;-61
2023/03/20 00:20:00;;;;;;;10.00;9.10;;;;;;;-145.53;100.00;64590.91;6297838;28;20441;-61
2023/03/20 00:23:13;;;;;;;9.03;8.23;;;;;;;-145.53;100.00;64590.91;6291499;28;20866;-61
2023/03/20 00:26:33;;;;;;;8.30;7.60;;;;;;;-145.53;100.00;64590.91;6282128;28;20586;-61
2023/03/20 00:29:40;;;;;;;9.27;8.40;;;;;;;-145.53;100.00;64590.91;6301883;28;20436;-61
2023/03/20 00:32:45;;;;;;;9.00;8.20;;;;;;;-145.53;100.00;64590.91;6300024;28;20430;-64
2023/03/20 00:35:53;;;;;;;9.47;8.67;;;;;;;-145.53;100.00;64590.91;6304687;28;20523;-60
2023/03/20 00:39:04;;;;;;;8.67;7.97;;;;;;;-145.53;100.00;64590.91;6294918;28;20819;-61
2023/03/20 00:42:23;;;;;;;8.90;8.10;;;;;;;-145.53;100.00;64590.91;6286328;28;20929;-62
2023/03/20 00:45:34;;;;;;;8.67;7.97;;;;;;;-145.53;100.00;64590.91;6301369;28;20431;-61
2023/03/20 00:48:45;;;;;;;8.37;7.67;;;;;;;-145.53;100.00;64590.91;6280788;28;20447;-62
2023/03/20 00:51:54;;;;;;;8.50;7.80;;;;;;;-145.53;100.00;64590.91;6291799;28;20454;-62
2023/03/20 00:55:10;;;;;;;8.33;7.63;;;;;;;-145.53;100.00;64590.91;6293841;28;20853;-60
2023/03/20 00:58:16;;;;;;;8.57;7.10;;;;;;;-145.53;100.00;64590.91;6308164;28;20418;-61
2023/03/20 01:01:26;;;;;;;7.90;7.30;;;;;;;-145.53;100.00;64590.91;6296147;28;20439;-61
2023/03/20 01:04:42;;;;;;;8.10;7.40;;;;;;;-145.53;100.00;64590.91;6295898;28;20442;-61
2023/03/20 01:07:52;;;;;;;7.83;7.13;;;;;;;-145.53;100.00;64590.91;6294472;28;20436;-61
2023/03/20 01:11:04;;;;;;;7.33;6.70;;;;;;;-145.53;100.00;64590.91;6295986;28;20434;-62
2023/03/20 01:14:16;;;;;;;7.17;6.57;;;;;;;-145.53;100.00;64590.91;6296480;28;20440;-61
2023/03/20 01:17:28;;;;;;;8.17;7.43;;;;;;;-145.53;100.00;64590.91;6302387;28;20461;-64
2023/03/20 01:20:38;;;;;;;6.77;6.27;;;;;;;-145.53;100.00;64590.91;6293245;28;20431;-61
2023/03/20 01:23:53;;;;;;;6.77;6.27;;;;;;;-145.53;100.00;64590.91;6291887;28;20440;-61
2023/03/20 01:27:02;;;;;;;6.90;6.40;;;;;;;-145.53;100.00;64590.91;6289962;28;20423;-61
2023/03/20 01:30:22;;;;;;;6.10;5.60;;;;;;;-145.53;100.00;64590.91;6293358;28;20853;-63
2023/03/20 01:33:32;;;;;;;6.60;6.10;;;;;;;-145.53;100.00;64590.91;6281487;28;20439;-63
2023/03/20 01:36:45;;;;;;;6.93;6.33;;;;;;;-145.53;100.00;64590.91;6304911;28;20989;-61
2023/03/20 01:40:00;;;;;;;6.47;5.97;;;;;;;-145.53;100.00;64590.91;6294176;28;20537;-61
2023/03/20 01:43:19;;;;;;;6.87;6.37;;;;;;;-145.53;100.00;64590.91;6306208;28;20492;-61
2023/03/20 01:46:28;;;;;;;6.50;6.00;;;;;;;-145.53;100.00;64590.91;6293991;28;20465;-62
2023/03/20 01:50:16;;;;;;;5.67;5.27;;;;;;;-145.53;100.00;64590.91;6299712;28;20430;-61
2023/03/20 01:53:26;;;;;;;7.40;6.70;;;;;;;-145.53;100.00;64590.91;6285517;28;20434;-61
2023/03/20 01:56:40;;;;;;;6.60;6.00;;;;;;;-145.53;100.00;64590.91;6299661;28;20511;-61
2023/03/20 01:59:51;;;;;;;6.20;5.70;;;;;;;-145.53;100.00;64590.91;6305206;28;20430;-62
2023/03/20 02:02:57;;;;;;;6.07;5.50;;;;;;;-145.53;100.00;64590.91;6310378;28;20503;-60
2023/03/20 02:06:12;;;;;;;6.50;6.00;;;;;;;-145.53;100.00;64590.91;6308992;28;20438;-61
2023/03/20 02:09:24;;;;;;;6.30;5.73;;;;;;;-145.53;100.00;64590.91;6293856;28;20434;-61
2023/03/20 02:12:33;;;;;;;6.60;6.00;;;;;;;-145.53;100.00;64590.91;6308674;28;20568;-61
2023/03/20 02:19:16;;;;;;;6.37;5.87;;;;;;;21.36;29.74;95304.19;6250198;27;108930;-63
2023/03/20 02:22:44;;;;;;;6.03;5.60;;;;;;;21.32;29.74;95303.19;6258752;27;111070;-61
2023/03/20 02:26:23;;;;;;;6.23;5.73;;;;;;;21.31;29.93;95302.41;6255792;27;108915;-61
2023/03/20 02:30:20;;;;;;;6.53;6.03;;;;;;;21.31;29.77;95318.38;6243333;27;109163;-61
2023/03/20 02:33:49;;;;;;;6.90;6.30;;;;;;;21.31;29.75;95310.38;6245648;27;109203;-61
2023/03/20 02:37:25;;;;;;;6.47;5.97;;;;;;;21.30;29.65;95305.34;6255024;27;108956;-62
2023/03/20 02:40:42;;;;;;;6.03;5.53;;;;;;;21.30;29.54;95305.34;6249722;27;109146;-62
2023/03/20 02:44:00;;;;;;;7.23;6.63;;;;;;;21.29;29.62;95312.56;6247272;27;109923;-61
2023/03/20 02:47:12;;;;;;;7.50;6.80;;;;;;;21.28;29.64;95313.63;6258466;27;108983;-62
2023/03/20 02:50:28;;;;;;;6.47;5.93;;;;;;;21.28;29.67;95313.63;6241647;27;109075;-61
2023/03/20 02:53:43;;;;;;;8.80;8.03;;;;;;;21.26;29.74;95305.16;6257734;27;109533;-62
2023/03/20 02:57:00;;;;;;;8.60;7.90;;;;;;;21.25;29.51;95300.91;6273248;27;110874;-62
2023/03/20 03:00:10;;;;;;;9.17;8.37;;;;;;;21.27;29.90;95297.97;6257954;27;109075;-62
2023/03/20 03:03:21;;;;;;;8.83;8.10;;;;;;;21.27;29.63;95296.09;6255153;27;112416;-62
2023/03/20 03:06:30;;;;;;;8.63;7.83;;;;;;;21.26;29.67;95289.19;6227557;27;109068;-61
2023/03/20 03:09:43;;;;;;;9.57;8.77;;;;;;;21.26;29.94;95291.06;6232101;27;109022;-62
2023/03/20 03:12:53;;;;;;;8.70;7.90;;;;;;;21.22;30.01;95293.53;6254918;27;110057;-62
2023/03/20 03:16:03;;;;;;;8.70;7.90;;;;;;;21.25;29.91;95297.47;6251062;27;108965;-62
2023/03/20 03:19:12;;;;;;;8.40;7.70;;;;;;;21.25;30.27;95295.59;6245436;27;109767;-62
2023/03/20 03:22:18;;;;;;;9.53;8.73;;;;;;;21.24;30.04;95293.22;6253330;27;108973;-61
2023/03/20 03:25:28;;;;;;;8.80;8.00;;;;;;;21.24;29.93;95290.56;6237087;27;109142;-62
2023/03/20 03:28:38;;;;;;;9.40;8.50;;;;;;;21.24;29.85;95290.56;6225488;27;109941;-61
2023/03/20 03:31:46;;;;;;;8.43;7.73;;;;;;;21.25;29.88;95289.47;6226360;27;109249;-61
2023/03/20 03:34:50;;;;;;;8.83;8.13;;;;;;;21.23;30.00;95303.09;6223682;28;112475;-61
2023/03/20 03:38:01;;;;;;;9.70;8.80;;;;;;;21.22;30.06;95298.84;6223944;27;109034;-63
2023/03/20 03:41:20;;;;;;;9.03;8.23;;;;;;;21.24;29.75;95304.66;6209942;28;109225;-62
2023/03/20 03:44:31;;;;;;;8.50;7.70;;;;;;;21.23;29.74;95297.75;6227019;27;109534;-62
2023/03/20 03:47:43;;;;;;;8.60;7.90;;;;;;;21.22;29.94;95298.84;6215039;28;109253;-61
2023/03/20 03:50:52;;;;;;;8.70;7.90;;;;;;;21.23;29.76;95294.31;6220806;28;109208;-60
2023/03/20 03:54:01;;;;;;;8.30;7.60;;;;;;;21.23;29.95;95302.28;6228966;28;109160;-59
2023/03/20 03:57:09;;;;;;;8.70;7.70;;;;;;;21.24;29.82;95303.88;6221246;28;109558;-60
2023/03/20 04:00:19;;;;;;;8.50;7.70;;;;;;;21.23;29.93;95303.09;6229243;27;109287;-60
2023/03/20 04:03:31;;;;;;;7.90;7.20;;;;;;;21.20;29.94;95301.03;6208111;28;109124;-60
2023/03/20 04:06:37;;;;;;;8.20;7.40;;;;;;;21.21;30.02;95292.75;6233598;27;109043;-60
2023/03/20 04:09:43;;;;;;;9.00;8.20;;;;;;;21.20;29.85;95290.38;6224383;27;109102;-60
2023/03/20 04:12:51;;;;;;;7.93;7.23;;;;;;;21.18;29.89;95289.88;6233089;28;109294;-61
2023/03/20 04:15:58;;;;;;;8.60;7.80;;;;;;;21.11;30.26;95292.13;6222491;27;109225;-59
2023/03/20 04:19:04;;;;;;;8.40;7.60;;;;;;;20.85;28.95;95286.44;6230493;28;109110;-59
2023/03/20 04:22:10;;;;;;;8.60;7.80;;;;;;;20.49;28.73;95291.50;6226059;27;109423;-60
2023/03/20 04:25:18;;;;;;;9.70;8.70;;;;;;;20.38;28.60;95285.56;6217124;27;109172;-60
2023/03/20 04:28:26;;;;;;;9.67;8.67;;;;;;;20.15;28.01;95284.50;6235959;28;110859;-60
2023/03/20 04:31:31;;;;;;;10.60;9.60;;;;;;;20.02;27.95;95282.56;6216925;27;109008;-60
2023/03/20 04:34:36;;;;;;;9.67;8.83;;;;;;;19.95;27.87;95284.78;6231255;27;109391;-60
2023/03/20 04:37:41;;;;;;;11.17;10.00;;;;;;;19.89;27.83;95283.28;6214337;28;110272;-60
2023/03/20 04:40:46;;;;;;;12.10;10.67;;;;;;;19.86;28.17;95274.00;6228213;28;108973;-61
2023/03/20 04:43:53;;;;;;;12.83;11.50;;;;;;;19.72;28.39;95273.91;6225266;27;110210;-62
2023/03/20 04:47:00;;;;;;;14.00;12.70;;;;;;;19.97;28.45;95279.97;6228536;27;109128;-62
2023/03/20 04:50:08;;;;;;;13.70;11.57;;;;;;;20.16;30.55;95288.72;6210673;28;109844;-63
2023/03/20 04:53:13;;;;;;;13.43;12.03;;;;;;;20.27;29.01;95287.56;6222656;28;110034;-61
2023/03/20 04:56:18;;;;;;;12.50;11.20;;;;;;;20.23;29.51;95297.16;6219213;28;109148;-61
2023/03/20 04:59:26;;;;;;;12.17;11.03;;;;;;;20.31;29.07;95303.72;6181580;27;109098;-61
2023/03/20 05:02:30;;;;;;;12.90;11.60;;;;;;;20.36;28.72;95302.88;6133204;28;110050;-61
2023/03/20 05:05:36;;;;;;;13.93;12.47;;;;;;;20.31;31.24;95307.16;6147630;28;113280;-62
2023/03/20 05:08:41;;;;;;;12.77;11.60;;;;;;;20.34;29.47;95313.78;6154460;28;109048;-61
2023/03/20 05:11:45;;;;;;;12.63;11.50;;;;;;;20.33;29.42;95314.84;6145951;28;109344;-62
2023/03/20 05:14:53;;;;;;;13.60;11.63;;;;;;;20.36;29.90;95318.81;6148015;28;108963;-62
2023/03/20 05:18:00;;;;;;;13.50;12.00;;;;;;;20.45;29.19;95317.06;6159126;28;108971;-61
2023/03/20 05:21:06;;;;;;;13.77;11.80;;;;;;;20.16;29.00;95319.81;6163577;28;109172;-60
2023/03/20 05:24:10;;;;;;;14.20;11.93;;;;;;;20.15;28.62;95313.72;6154194;28;108840;-61
2023/03/20 05:27:17;;;;;;;12.13;10.93;;;;;;;20.04;29.05;95328.22;6163531;28;109034;-61
2023/03/20 05:30:23;;;;;;;18.13;13.47;;;;;;;20.07;29.08;95332.97;6160416;28;109033;-64
2023/03/20 05:33:31;;;;;;;14.70;13.20;;;;;;;20.12;28.97;95332.09;6128678;28;109450;-62
2023/03/20 05:36:39;;;;;;;14.80;13.40;;;;;;;20.05;28.87;95339.66;6139243;28;109032;-61
2023/03/20 05:39:45;;;;;;;16.30;14.80;;;;;;;20.07;28.89;95340.16;6138811;28;110212;-60
2023/03/20 05:42:52;;;;;;;15.90;14.30;;;;;;;19.99;29.04;95341.56;6138775;28;109204;-62
2023/03/20 05:46:01;;;;;;;15.90;14.30;;;;;;;19.96;29.00;95331.50;6152217;28;110282;-61
2023/03/20 05:49:07;;;;;;;16.40;14.70;;;;;;;19.94;28.84;95334.44;6163041;28;110144;-61
2023/03/20 05:52:11;;;;;;;16.60;15.00;;;;;;;20.01;28.87;95336.78;6162781;28;109703;-62
2023/03/20 05:55:16;;;;;;;16.50;14.97;;;;;;;20.02;28.74;95343.66;6162956;28;109191;-62
2023/03/20 05:58:22;;;;;;;17.30;15.60;;;;;;;19.81;29.20;95342.31;6152679;28;109260;-62
2023/03/20 06:01:28;;;;;;;18.87;16.93;;;;;;;19.97;28.92;95338.41;6162965;28;109017;-61
2023/03/20 06:04:36;;;;;;;18.33;16.43;;;;;;;20.00;29.36;95349.28;6163284;28;111306;-61
2023/03/20 06:07:42;;;;;;;16.87;15.13;;;;;;;20.01;29.08;95342.09;6153634;28;110474;-63
2023/03/20 06:10:46;;;;;;;17.40;14.10;;;;;;;20.03;29.36;95335.41;6162473;28;109001;-64
2023/03/20 06:13:53;;;;;;;15.50;13.80;;;;;;;20.14;29.17;95330.75;6162633;28;108736;-63
2023/03/20 06:17:00;;;;;;;16.13;14.60;;;;;;;20.13;29.22;95325.72;6161712;28;109128;-64
2023/03/20 06:20:05;;;;;;;15.00;13.57;;;;;;;20.18;29.24;95331.00;6151772;28;108968;-64
2023/03/20 06:23:10;;;;;;;15.73;14.23;;;;;;;20.27;29.25;95331.94;6162182;28;109170;-63
2023/03/20 06:26:15;;;;;;;14.40;13.00;;;;;;;20.37;29.20;95339.00;6162149;28;109082;-64
2023/03/20 06:29:21;;;;;;;15.73;12.70;;;;;;;20.34;29.55;95337.72;6162189;28;109681;-63
2023/03/20 06:32:28;;;;;;;16.47;12.93;;;;;;;20.34;30.08;95343.03;6151812;28;110364;-64
2023/03/20 06:35:32;;;;;;;13.60;12.30;;;;;;;20.34;29.80;95344.91;6162280;28;109028;-63
2023/03/20 06:38:37;;;;;;;13.00;11.80;;;;;;;20.37;30.25;95337.13;6161995;28;109050;-64
2023/03/20 06:41:42;;;;;;;14.00;12.70;;;;;;;20.36;30.24;95335.56;6154578;28;110442;-64
2023/03/20 06:44:47;;;;;;;14.13;12.37;;;;;;;20.38;30.29;95338.72;6160961;28;109174;-64
2023/03/20 06:47:54;;;;;;;13.03;11.73;;;;;;;20.42;30.15;95345.03;6161513;28;109009;-64
2023/03/20 06:51:00;;;;;;;13.50;11.90;;;;;;;20.44;30.36;95337.53;6162074;28;109085;-64
2023/03/20 06:54:07;;;;;;;14.77;13.27;;;;;;;20.45;30.33;95341.78;6151739;28;110340;-64
2023/03/20 06:57:12;;;;;;;12.87;11.63;;;;;;;20.50;30.28;95335.59;6162194;28;108989;-63
2023/03/20 07:00:20;;;;;;;14.03;12.60;;;;;;;20.51;30.34;95330.03;6161382;28;109453;-63
2023/03/20 07:03:27;;;;;;;14.60;12.40;;;;;;;20.54;30.48;95320.69;6162479;28;109274;-64
2023/03/20 07:06:32;;;;;;;13.57;12.20;;;;;;;20.54;31.01;95316.16;6156875;28;110671;-65
2023/03/20 07:09:39;;;;;;;13.80;12.40;;;;;;;20.59;30.57;95317.94;6166087;28;109019;-64
2023/03/20 07:12:44;;;;;;;12.90;11.53;;;;;;;20.60;31.05;95324.81;6165817;28;108985;-64
2023/03/20 07:15:51;;;;;;;12.63;11.37;;;;;;;20.62;31.18;95328.78;6159297;28;109964;-63
2023/03/20 07:19:11;;;;;;;13.57;12.07;;;;;;;20.63;31.54;95322.38;6165078;28;110009;-64
2023/03/20 07:22:22;;;;;;;13.97;12.77;;;;;;;20.63;31.12;95319.72;6165654;28;108932;-63
2023/03/20 07:25:27;;;;;;;13.57;12.17;;;;;;;20.62;31.11;95317.34;6165789;28;108973;-64
2023/03/20 07:28:45;;;;;;;13.00;11.60;;;;;;;-145.53;100.00;64590.91;6243094;28;109420;-63
2023/03/20 07:31:50;;;;;;;13.03;11.73;;;;;;;-145.53;100.00;64590.91;6287344;28;20301;-64
2023/03/20 07:34:57;;;;;;;11.30;10.30;;;;;;;-145.53;100.00;64590.91;6287233;28;20607;-64
2023/03/20 07:38:01;;;;;;;12.13;10.77;;;;;;;-145.53;100.00;64590.91;6282899;28;20428;-62
2023/03/20 07:41:06;;;;;;;13.33;11.33;;;;;;;-145.53;100.00;64590.91;6280888;28;20555;-63
2023/03/20 07:44:13;;;;;;;11.97;10.50;;;;;;;-145.53;100.00;64590.91;6278165;28;20439;-62
2023/03/20 07:47:18;;;;;;;11.97;10.87;;;;;;;-145.53;100.00;64590.91;6262144;28;20428;-63
2023/03/20 07:50:25;;;;;;;14.53;11.03;;;;;;;-145.53;100.00;64590.91;6251073;28;20458;-63
2023/03/20 07:53:30;;;;;;;11.50;9.70;;;;;;;-145.53;100.00;64590.91;6262164;28;20432;-64
2023/03/20 07:56:35;;;;;;;11.33;10.10;;;;;;;-145.53;100.00;64590.91;6262034;28;20440;-64
2023/03/20 07:59:40;;;;;;;11.20;10.03;;;;;;;-145.53;100.00;64590.91;6261994;28;20929;-63
2023/03/20 08:02:46;;;;;;;12.47;10.10;;;;;;;-145.53;100.00;64590.91;6251445;28;20820;-64
2023/03/20 08:05:54;;;;;;;11.03;9.93;;;;;;;-145.53;100.00;64590.91;6261856;28;20448;-64
2023/03/20 08:08:59;;;;;;;12.07;10.77;;;;;;;-145.53;100.00;64590.91;6261854;28;20486;-63
2023/03/20 08:12:04;;;;;;;11.13;9.93;;;;;;;-145.53;100.00;64590.91;6261630;28;21067;-63
2023/03/20 08:15:10;;;;;;;12.63;11.20;;;;;;;-145.53;100.00;64590.91;6269192;28;20842;-63
2023/03/20 08:18:15;;;;;;;10.73;9.73;;;;;;;-145.53;100.00;64590.91;6285879;28;21009;-63
2023/03/20 08:21:24;;;;;;;12.47;11.23;;;;;;;-145.53;100.00;64590.91;6286083;28;20462;-64
2023/03/20 08:24:28;;;;;;;14.07;12.70;;;;;;;-145.53;100.00;64590.91;6276392;28;20450;-63
2023/03/20 08:27:33;;;;;;;14.33;13.00;;;;;;;-145.53;100.00;64590.91;6285786;28;20450;-64
2023/03/20 08:30:38;;;;;;;17.40;15.17;;;;;;;-145.53;100.00;64590.91;6286075;28;20601;-63
2023/03/20 08:33:44;;;;;;;17.00;15.23;;;;;;;-145.53;100.00;64590.91;6286016;28;20424;-63
2023/03/20 08:36:51;;;;;;;16.60;15.10;;;;;;;-145.53;100.00;64590.91;6275727;28;20447;-64
2023/03/20 08:39:59;;;;;;;18.13;16.23;;;;;;;-145.53;100.00;64590.91;6285875;28;20483;-64
2023/03/20 08:43:04;;;;;;;17.87;16.27;;;;;;;-145.53;100.00;64590.91;6285949;28;20974;-64
2023/03/20 08:46:08;;;;;;;18.07;16.27;;;;;;;-145.53;100.00;64590.91;6261104;28;20814;-64
2023/03/20 08:49:13;;;;;;;18.73;16.93;;;;;;;-145.53;100.00;64590.91;6250458;28;20816;-64
2023/03/20 08:52:19;;;;;;;19.97;18.00;;;;;;;-145.53;100.00;64590.91;6261102;28;20928;-64
2023/03/20 08:55:23;;;;;;;19.23;17.43;;;;;;;-145.53;100.00;64590.91;6260815;28;20432;-63
2023/03/20 08:58:30;;;;;;;20.20;17.83;;;;;;;-145.53;100.00;64590.91;6252166;28;20523;-64
2023/03/20 09:01:35;;;;;;;23.03;19.07;;;;;;;-145.53;100.00;64590.91;6260029;28;20497;-64
2023/03/20 09:04:52;;;;;;;20.63;17.17;;;;;;;-145.53;100.00;64590.91;6260502;28;20427;-64
2023/03/20 09:08:01;;;;;;;17.93;16.17;;;;;;;-145.53;100.00;64590.91;6260820;28;20454;-64
2023/03/20 09:11:07;;;;;;;18.77;17.00;;;;;;;-145.53;100.00;64590.91;6249557;28;20436;-64
2023/03/20 09:14:13;;;;;;;18.23;16.27;;;;;;;-145.53;100.00;64590.91;6260506;28;20424;-64
2023/03/20 09:17:18;;;;;;;17.37;15.63;;;;;;;-145.53;100.00;64590.91;6259592;28;20455;-63
2023/03/20 09:20:25;;;;;;;17.37;15.60;;;;;;;-145.53;100.00;64590.91;6260266;28;20529;-64
2023/03/20 09:23:31;;;;;;;15.37;13.97;;;;;;;-145.53;100.00;64590.91;6251012;28;20436;-65
2023/03/20 09:26:36;;;;;;;16.20;14.67;;;;;;;-145.53;100.00;64590.91;6260032;28;20432;-64
2023/03/20 09:29:42;;;;;;;15.50;14.00;;;;;;;-145.53;100.00;64590.91;6260230;28;20436;-63
2023/03/20 09:32:46;;;;;;;15.00;13.40;;;;;;;-145.53;100.00;64590.91;6249652;28;20942;-64
2023/03/20 09:35:51;;;;;;;15.10;13.50;;;;;;;-145.53;100.00;64590.91;6259892;28;20511;-63
2023/03/20 09:39:00;;;;;;;13.90;12.50;;;;;;;-145.53;100.00;64590.91;6260141;28;20420;-64
2023/03/20 09:42:19;;;;;;;13.33;12.13;;;;;;;-145.53;100.00;64590.91;6260063;28;20448;-63
2023/03/20 09:45:40;;;;;;;15.30;13.73;;;;;;;-145.53;100.00;64590.91;6266752;28;20815;-64
2023/03/20 09:48:50;;;;;;;13.80;12.37;;;;;;;-145.53;100.00;64590.91;6284606;28;20416;-64
2023/03/20 09:52:00;;;;;;;13.57;12.17;;;;;;;-145.53;100.00;64590.91;6284594;28;20935;-64
2023/03/20 09:55:12;;;;;;;13.13;12.00;;;;;;;-145.53;100.00;64590.91;6279360;28;20853;-65
2023/03/20 09:58:23;;;;;;;14.10;12.80;;;;;;;-145.53;100.00;64590.91;6280069;28;20982;-62
2023/03/20 10:01:33;;;;;;;13.57;11.27;;;;;;;-145.53;100.00;64590.91;6284417;28;20442;-63
2023/03/20 10:04:44;;;;;;;16.07;12.67;;;;;;;-145.53;100.00;64590.91;6284328;28;20439;-63
2023/03/20 10:07:51;;;;;;;13.07;11.77;;;;;;;-145.53;100.00;64590.91;6274017;28;20442;-64
2023/03/20 10:11:07;;;;;;;12.13;11.03;;;;;;;-145.53;100.00;64590.91;6284439;28;20454;-64
2023/03/20 10:14:23;;;;;;;12.63;11.43;;;;;;;-145.53;100.00;64590.91;6276559;28;20448;-66
2023/03/20 10:17:47;;;;;;;12.73;11.63;;;;;;;-145.53;100.00;64590.91;6256696;28;20447;-64
2023/03/20 10:20:58;;;;;;;12.20;11.10;;;;;;;-145.53;100.00;64590.91;6253694;28;20526;-64
2023/03/20 10:24:04;;;;;;;11.90;10.30;;;;;;;-145.53;100.00;64590.91;6259251;28;20451;-64
2023/03/20 10:27:21;;;;;;;11.60;10.57;;;;;;;-145.53;100.00;64590.91;6259352;28;20711;-64
2023/03/20 10:30:36;;;;;;;10.70;9.77;;;;;;;-145.53;100.00;64590.91;6248290;28;20440;-64
2023/03/20 10:33:53;;;;;;;11.33;10.00;;;;;;;-145.53;100.00;64590.91;6259203;28;20421;-64
2023/03/20 10:37:11;;;;;;;10.67;9.77;;;;;;;-145.53;100.00;64590.91;6259157;28;20432;-64
2023/03/20 10:40:30;;;;;;;12.70;11.50;;;;;;;-145.53;100.00;64590.91;6258320;28;20416;-65
2023/03/20 10:43:39;;;;;;;11.07;10.07;;;;;;;-145.53;100.00;64590.91;6260676;28;20440;-65
2023/03/20 10:46:51;;;;;;;11.20;10.17;;;;;;;-145.53;100.00;64590.91;6288237;28;20486;-64
2023/03/20 10:50:01;;;;;;;10.47;9.50;;;;;;;-145.53;100.00;64590.91;6288121;28;20450;-64
2023/03/20 10:53:08;;;;;;;10.43;9.50;;;;;;;-145.53;100.00;64590.91;6278057;28;20958;-64
2023/03/20 10:56:15;;;;;;;10.37;9.37;;;;;;;-145.53;100.00;64590.91;6287931;28;20915;-64
2023/03/20 10:59:25;;;;;;;11.80;10.13;;;;;;;-145.53;100.00;64590.91;6287945;28;20435;-64
2023/03/20 11:02:31;;;;;;;10.40;9.40;;;;;;;-145.53;100.00;64590.91;6287437;28;20451;-64
2023/03/20 11:05:37;;;;;;;10.37;9.33;;;;;;;-145.53;100.00;64590.91;6277130;28;20947;-64
2023/03/20 11:08:47;;;;;;;11.20;10.03;;;;;;;-145.53;100.00;64590.91;6287703;28;20989;-65
2023/03/20 11:11:57;;;;;;;11.27;9.90;;;;;;;-145.53;100.00;64590.91;6287714;28;20477;-64
2023/03/20 11:15:14;;;;;;;10.43;9.43;;;;;;;-145.53;100.00;64590.91;6268472;28;20444;-65
2023/03/20 11:18:24;;;;;;;10.67;9.57;;;;;;;-145.53;100.00;64590.91;6261662;28;20443;-64
2023/03/20 11:21:31;;;;;;;10.43;9.43;;;;;;;-145.53;100.00;64590.91;6262697;28;20452;-64
2023/03/20 11:24:41;;;;;;;13.40;10.20;;;;;;;-145.53;100.00;64590.91;6262764;28;20497;-67
2023/03/20 11:27:45;;;;;;;11.50;10.40;;;;;;;-145.53;100.00;64590.91;6251821;28;20440;-64
2023/03/20 11:30:58;;;;;;;11.37;10.27;;;;;;;-145.53;100.00;64590.91;6262622;28;20444;-64
2023/03/20 11:34:25;;;;;;;11.10;10.10;;;;;;;-145.53;100.00;64590.91;6262726;28;20910;-64
2023/03/20 11:37:34;;;;;;;11.13;10.13;;;;;;;-145.53;100.00;64590.91;6257746;28;20424;-65
2023/03/20 11:40:41;;;;;;;10.37;9.50;;;;;;;-145.53;100.00;64590.91;6256866;28;20531;-64
2023/03/20 11:43:46;;;;;;;11.00;9.90;;;;;;;-145.53;100.00;64590.91;6265681;28;20424;-64
2023/03/20 11:47:00;;;;;;;11.73;10.63;;;;;;;-145.53;100.00;64590.91;6287316;28;20570;-64
2023/03/20 11:50:06;;;;;;;12.30;11.10;;;;;;;-145.53;100.00;64590.91;6275634;28;20451;-64
2023/03/20 11:53:28;;;;;;;11.30;10.20;;;;;;;-145.53;100.00;64590.91;6287009;28;20423;-64
2023/03/20 11:56:33;;;;;;;10.93;9.93;;;;;;;-145.53;100.00;64590.91;6287024;28;20442;-64
2023/03/20 11:59:38;;;;;;;12.03;9.27;;;;;;;-145.53;100.00;64590.91;6286635;28;20423;-64
2023/03/20 12:02:45;;;;;;;10.13;9.20;;;;;;;-145.53;100.00;64590.91;6275706;28;20466;-64
2023/03/20 12:05:50;;;;;;;9.23;8.33;;;;;;;-145.53;100.00;64590.91;6286570;28;20447;-64
2023/03/20 12:09:01;;;;;;;10.33;9.23;;;;;;;-145.53;100.00;64590.91;6286506;28;20435;-64
2023/03/20 12:12:18;;;;;;;9.10;8.30;;;;;;;-145.53;100.00;64590.91;6278981;28;20455;-66
2023/03/20 12:15:25;;;;;;;10.10;9.20;;;;;;;-145.53;100.00;64590.91;6269471;28;20535;-64
2023/03/20 12:18:35;;;;;;;10.07;9.07;;;;;;;-145.53;100.00;64590.91;6261239;28;20444;-64
2023/03/20 12:21:46;;;;;;;10.90;8.73;;;;;;;-145.53;100.00;64590.91;6261445;28;20439;-64
2023/03/20 12:24:58;;;;;;;11.87;8.93;;;;;;;-145.53;100.00;64590.91;6250843;28;20450;-64
2023/03/20 12:28:12;;;;;;;9.50;8.67;;;;;;;-145.53;100.00;64590.91;6261644;28;20425;-64
2023/03/20 12:31:24;;;;;;;9.60;8.00;;;;;;;-145.53;100.00;64590.91;6261395;28;20600;-64
2023/03/20 12:34:34;;;;;;;8.77;7.87;;;;;;;-145.53;100.00;64590.91;6256574;28;20784;-64
2023/03/20 12:37:39;;;;;;;8.60;7.60;;;;;;;-145.53;100.00;64590.91;6255987;28;20444;-65
2023/03/20 12:40:46;;;;;;;8.80;8.00;;;;;;;-145.53;100.00;64590.91;6261246;28;20428;-63
2023/03/20 12:44:10;;;;;;;8.50;7.63;;;;;;;-145.53;100.00;64590.91;6264668;28;20434;-64
2023/03/20 12:47:39;;;;;;;8.57;7.70;;;;;;;-145.53;100.00;64590.91;6274918;28;20440;-63
2023/03/20 12:50:50;;;;;;;7.93;7.30;;;;;;;-145.53;100.00;64590.91;6285575;28;20417;-63
2023/03/20 12:54:06;;;;;;;8.20;7.50;;;;;;;-145.53;100.00;64590.91;6285499;28;20443;-64
2023/03/20 12:57:21;;;;;;;7.53;6.67;;;;;;;-145.53;100.00;64590.91;6280565;28;20420;-64
2023/03/20 13:00:31;;;;;;;7.30;6.60;;;;;;;-145.53;100.00;64590.91;6280070;28;20432;-65
2023/03/20 13:04:16;;;;;;;6.73;6.20;;;;;;;-145.53;100.00;64590.91;6284846;28;20473;-66
2023/03/20 13:07:26;;;;;;;7.50;6.80;;;;;;;-145.53;100.00;64590.91;6257967;28;20440;-65
2023/03/20 13:10:35;;;;;;;7.13;6.40;;;;;;;-145.53;100.00;64590.91;6274895;28;20458;-66
2023/03/20 13:13:47;;;;;;;6.50;5.90;;;;;;;-145.53;100.00;64590.91;6283614;28;20448;-62
2023/03/20 13:17:01;;;;;;;6.50;5.90;;;;;;;-145.53;100.00;64590.91;6260076;28;20448;-61
2023/03/20 13:20:22;;;;;;;6.97;6.33;;;;;;;-145.53;100.00;64590.91;6255565;28;20612;-60
2023/03/20 13:23:34;;;;;;;7.40;6.20;;;;;;;-145.53;100.00;64590.91;6258058;28;20451;-61
2023/03/20 13:26:44;;;;;;;6.90;6.30;;;;;;;-145.53;100.00;64590.91;6260325;28;20456;-61
2023/03/20 13:29:55;;;;;;;6.97;6.23;;;;;;;-145.53;100.00;64590.91;6260590;28;20436;-61
2023/03/20 13:33:11;;;;;;;6.47;5.40;;;;;;;-145.53;100.00;64590.91;6249529;28;20467;-60
2023/03/20 13:36:27;;;;;;;6.67;5.53;;;;;;;-145.53;100.00;64590.91;6260345;28;20467;-60
2023/03/20 13:39:36;;;;;;;5.67;5.17;;;;;;;-145.53;100.00;64590.91;6260275;28;20428;-61
2023/03/20 13:42:49;;;;;;;6.73;6.13;;;;;;;-145.53;100.00;64590.91;6255138;28;20468;-61
2023/03/20 13:46:01;;;;;;;5.93;5.37;;;;;;;-145.53;100.00;64590.91;6274275;28;20807;-60
2023/03/20 13:49:14;;;;;;;6.03;5.30;;;;;;;-145.53;100.00;64590.91;6284540;28;20441;-61
2023/03/20 13:52:22;;;;;;;6.23;5.63;;;;;;;-145.53;100.00;64590.91;6284600;28;20419;-61
2023/03/20 13:55:36;;;;;;;6.47;5.10;;;;;;;-145.53;100.00;64590.91;6273514;28;20443;-61
2023/03/20 13:59:05;;;;;;;6.20;5.20;;;;;;;-145.53;100.00;64590.91;6284617;28;20469;-60
2023/03/20 14:02:23;;;;;;;5.63;5.07;;;;;;;-145.53;100.00;64590.91;6284197;28;20455;-60
2023/03/20 14:05:29;;;;;;;5.77;5.27;;;;;;;-145.53;100.00;64590.91;6279471;28;20426;-62
2023/03/20 14:08:36;;;;;;;5.60;5.00;;;;;;;-145.53;100.00;64590.91;6278560;28;20537;-61
2023/03/20 14:11:42;;;;;;;5.13;4.63;;;;;;;-145.53;100.00;64590.91;6284357;28;20424;-60
2023/03/20 14:14:53;;;;;;;5.13;4.37;;;;;;;-145.53;100.00;64590.91;6284117;28;20895;-62
2023/03/20 14:17:57;;;;;;;4.77;4.30;;;;;;;-145.53;100.00;64590.91;6273397;28;20517;-61
2023/03/20 14:21:04;;;;;;;5.70;4.60;;;;;;;-145.53;100.00;64590.91;6280715;28;20731;-61
2023/03/20 14:24:16;;;;;;;4.73;4.37;;;;;;;-145.53;100.00;64590.91;6283989;28;20450;-61